sensor_id;sensor_type;location;lat;lon;timestamp;P1;P2;P0
72509;PMS5003;60532;56.114;40.350;2024-01-11T00:01:59;12.00;8.00;6.00
72509;PMS5003;60532;56.114;40.350;2024-01-11T00:03:59;9.50;6.00;4.00
72509;PMS5003;60532;56.114;40.350;2024-01-11T00:06:00;10.50;7.00;6.00
72509;PMS5003;60532;56.114;40.350;2024-01-11T00:08:01;21.00;11.40;7.80
72509;PMS5003;60532;56.114;40.350;2024-01-11T00:10:02;14.00;8.00;6.00
72509;PMS5003;60532;56.114;40.350;2024-01-11T00:12:03;19.20;9.00;6.00
72509;PMS5003;60532;56.114;40.350;2024-01-11T00:14:03;11.50;7.00;4.00
72509;PMS5003;60532;56.114;40.350;2024-01-11T00:16:04;13.50;5.50;3.00
72509;PMS5003;60532;56.114;40.350;2024-01-11T00:18:04;11.75;9.50;4.00
72509;PMS5003;60532;56.114;40.350;2024-01-11T00:20:05;9.00;9.00;5.50
72509;PMS5003;60532;56.114;40.350;2024-01-11T00:22:06;10.50;7.50;3.50
72509;PMS5003;60532;56.114;40.350;2024-01-11T00:24:06;3.00;1.00;1.00
72509;PMS5003;60532;56.114;40.350;2024-01-11T00:26:07;5.00;5.00;3.75
72509;PMS5003;60532;56.114;40.350;2024-01-11T00:28:07;10.00;6.00;4.00
72509;PMS5003;60532;56.114;40.350;2024-01-11T00:30:07;10.75;7.00;4.00
72509;PMS5003;60532;56.114;40.350;2024-01-11T00:32:09;14.75;8.25;6.25
72509;PMS5003;60532;56.114;40.350;2024-01-11T00:34:09;11.20;6.40;4.80
72509;PMS5003;60532;56.114;40.350;2024-01-11T00:36:10;10.50;8.50;5.50
72509;PMS5003;60532;56.114;40.350;2024-01-11T00:38:10;10.00;4.50;3.50
72509;PMS5003;60532;56.114;40.350;2024-01-11T00:40:11;5.75;4.00;3.00
72509;PMS5003;60532;56.114;40.350;2024-01-11T00:42:11;6.75;4.50;3.75
72509;PMS5003;60532;56.114;40.350;2024-01-11T00:44:11;5.50;4.50;3.25
72509;PMS5003;60532;56.114;40.350;2024-01-11T00:46:12;10.00;6.50;5.00
72509;PMS5003;60532;56.114;40.350;2024-01-11T00:48:12;9.75;6.25;5.50
72509;PMS5003;60532;56.114;40.350;2024-01-11T00:50:13;16.75;7.50;3.75
72509;PMS5003;60532;56.114;40.350;2024-01-11T00:52:13;9.75;5.50;4.50
72509;PMS5003;60532;56.114;40.350;2024-01-11T00:54:14;11.25;6.25;4.50
72509;PMS5003;60532;56.114;40.350;2024-01-11T00:56:15;5.00;5.00;3.75
72509;PMS5003;60532;56.114;40.350;2024-01-11T00:58:15;4.40;4.00;3.00
72509;PMS5003;60532;56.114;40.350;2024-01-11T01:00:16;7.50;4.00;3.75
72509;PMS5003;60532;56.114;40.350;2024-01-11T01:02:16;9.00;6.00;4.00
72509;PMS5003;60532;56.114;40.350;2024-01-11T01:04:17;9.00;4.00;4.00
72509;PMS5003;60532;56.114;40.350;2024-01-11T01:06:17;12.50;7.00;3.25
72509;PMS5003;60532;56.114;40.350;2024-01-11T01:08:18;13.25;4.00;3.00
72509;PMS5003;60532;56.114;40.350;2024-01-11T01:10:18;5.75;5.50;4.00
72509;PMS5003;60532;56.114;40.350;2024-01-11T01:12:18;8.50;1.00;0.75
72509;PMS5003;60532;56.114;40.350;2024-01-11T01:14:19;10.50;5.00;3.00
72509;PMS5003;60532;56.114;40.350;2024-01-11T01:16:19;9.75;5.50;4.00
72509;PMS5003;60532;56.114;40.350;2024-01-11T01:18:20;4.00;3.00;2.50
72509;PMS5003;60532;56.114;40.350;2024-01-11T01:20:20;6.25;4.00;3.00
72509;PMS5003;60532;56.114;40.350;2024-01-11T01:22:21;7.00;6.00;4.00
72509;PMS5003;60532;56.114;40.350;2024-01-11T01:24:21;8.75;6.25;4.00
72509;PMS5003;60532;56.114;40.350;2024-01-11T01:26:22;11.00;3.25;3.00
72509;PMS5003;60532;56.114;40.350;2024-01-11T01:28:22;2.50;1.50;1.00
72509;PMS5003;60532;56.114;40.350;2024-01-11T01:30:23;3.75;3.75;1.50
72509;PMS5003;60532;56.114;40.350;2024-01-11T01:32:23;5.75;5.25;3.25
72509;PMS5003;60532;56.114;40.350;2024-01-11T01:34:24;5.00;4.50;3.00
72509;PMS5003;60532;56.114;40.350;2024-01-11T01:36:24;4.50;3.00;3.00
72509;PMS5003;60532;56.114;40.350;2024-01-11T01:38:24;5.00;4.50;3.75
72509;PMS5003;60532;56.114;40.350;2024-01-11T01:40:25;10.50;6.00;3.00
72509;PMS5003;60532;56.114;40.350;2024-01-11T01:42:25;8.50;4.50;3.50
72509;PMS5003;60532;56.114;40.350;2024-01-11T01:44:26;12.50;4.00;3.00
72509;PMS5003;60532;56.114;40.350;2024-01-11T01:46:26;3.00;3.00;3.00
72509;PMS5003;60532;56.114;40.350;2024-01-11T01:48:27;8.20;5.60;3.60
72509;PMS5003;60532;56.114;40.350;2024-01-11T01:50:28;10.75;3.25;1.00
72509;PMS5003;60532;56.114;40.350;2024-01-11T01:52:29;9.00;8.00;4.00
72509;PMS5003;60532;56.114;40.350;2024-01-11T01:54:29;1.25;0.25;0.25
72509;PMS5003;60532;56.114;40.350;2024-01-11T01:56:31;7.00;4.80;3.00
72509;PMS5003;60532;56.114;40.350;2024-01-11T01:58:32;8.50;4.00;3.00
72509;PMS5003;60532;56.114;40.350;2024-01-11T02:00:33;7.80;3.40;1.00
72509;PMS5003;60532;56.114;40.350;2024-01-11T02:02:33;4.50;4.00;3.00
72509;PMS5003;60532;56.114;40.350;2024-01-11T02:04:34;5.60;3.00;1.80
72509;PMS5003;60532;56.114;40.350;2024-01-11T02:06:35;6.00;3.75;3.00
72509;PMS5003;60532;56.114;40.350;2024-01-11T02:08:36;3.00;2.60;1.00
72509;PMS5003;60532;56.114;40.350;2024-01-11T02:10:36;5.00;1.00;1.00
72509;PMS5003;60532;56.114;40.350;2024-01-11T02:12:37;8.00;5.50;3.00
72509;PMS5003;60532;56.114;40.350;2024-01-11T02:14:37;9.00;4.50;3.00
72509;PMS5003;60532;56.114;40.350;2024-01-11T02:16:38;5.00;3.25;2.00
72509;PMS5003;60532;56.114;40.350;2024-01-11T02:18:38;6.00;5.00;4.00
72509;PMS5003;60532;56.114;40.350;2024-01-11T02:20:39;9.00;3.00;3.00
72509;PMS5003;60532;56.114;40.350;2024-01-11T02:22:40;3.75;3.75;3.00
72509;PMS5003;60532;56.114;40.350;2024-01-11T02:24:42;5.80;1.40;1.40
72509;PMS5003;60532;56.114;40.350;2024-01-11T02:26:58;4.00;3.75;2.50
72509;PMS5003;60532;56.114;40.350;2024-01-11T02:29:02;3.00;3.00;2.20
72509;PMS5003;60532;56.114;40.350;2024-01-11T02:31:02;8.50;6.00;3.00
72509;PMS5003;60532;56.114;40.350;2024-01-11T02:33:03;3.00;3.00;1.00
72509;PMS5003;60532;56.114;40.350;2024-01-11T02:35:04;8.80;4.40;3.00
72509;PMS5003;60532;56.114;40.350;2024-01-11T02:37:05;6.00;4.00;3.00
72509;PMS5003;60532;56.114;40.350;2024-01-11T02:39:06;5.00;2.60;1.80
72509;PMS5003;60532;56.114;40.350;2024-01-11T02:41:07;7.00;4.00;3.00
72509;PMS5003;60532;56.114;40.350;2024-01-11T02:43:08;1.00;1.00;0.75
72509;PMS5003;60532;56.114;40.350;2024-01-11T02:45:09;6.60;6.00;3.00
72509;PMS5003;60532;56.114;40.350;2024-01-11T02:47:10;3.60;2.60;1.00
72509;PMS5003;60532;56.114;40.350;2024-01-11T02:49:10;1.75;0.00;0.00
72509;PMS5003;60532;56.114;40.350;2024-01-11T02:51:11;6.25;4.00;3.00
72509;PMS5003;60532;56.114;40.350;2024-01-11T02:53:11;12.25;6.00;3.50
72509;PMS5003;60532;56.114;40.350;2024-01-11T02:55:12;9.00;5.00;3.75
72509;PMS5003;60532;56.114;40.350;2024-01-11T02:57:12;4.00;4.00;3.00
72509;PMS5003;60532;56.114;40.350;2024-01-11T02:59:13;6.00;5.00;3.00
72509;PMS5003;60532;56.114;40.350;2024-01-11T03:01:13;9.00;7.00;4.00
72509;PMS5003;60532;56.114;40.350;2024-01-11T03:03:14;6.50;4.75;3.00
72509;PMS5003;60532;56.114;40.350;2024-01-11T03:05:14;4.25;2.50;1.00
72509;PMS5003;60532;56.114;40.350;2024-01-11T03:07:14;6.75;4.00;2.25
72509;PMS5003;60532;56.114;40.350;2024-01-11T03:09:15;4.00;3.00;2.00
72509;PMS5003;60532;56.114;40.350;2024-01-11T03:11:16;7.00;3.75;3.00
72509;PMS5003;60532;56.114;40.350;2024-01-11T03:13:16;8.50;4.00;3.50
72509;PMS5003;60532;56.114;40.350;2024-01-11T03:15:17;6.00;3.00;3.00
72509;PMS5003;60532;56.114;40.350;2024-01-11T03:17:17;9.75;6.00;3.75
72509;PMS5003;60532;56.114;40.350;2024-01-11T03:19:18;5.50;5.50;3.00
72509;PMS5003;60532;56.114;40.350;2024-01-11T03:21:18;5.00;4.00;3.25
72509;PMS5003;60532;56.114;40.350;2024-01-11T03:23:19;9.50;5.00;3.50
72509;PMS5003;60532;56.114;40.350;2024-01-11T03:25:19;6.50;3.00;1.00
72509;PMS5003;60532;56.114;40.350;2024-01-11T03:27:19;6.50;3.75;3.00
72509;PMS5003;60532;56.114;40.350;2024-01-11T03:29:20;5.50;3.00;3.00
72509;PMS5003;60532;56.114;40.350;2024-01-11T03:31:20;4.25;3.75;3.00
72509;PMS5003;60532;56.114;40.350;2024-01-11T03:33:21;6.00;6.00;4.00
72509;PMS5003;60532;56.114;40.350;2024-01-11T03:35:21;12.00;6.00;3.00
72509;PMS5003;60532;56.114;40.350;2024-01-11T03:37:22;4.00;4.00;1.00
72509;PMS5003;60532;56.114;40.350;2024-01-11T03:39:23;7.00;4.00;3.25
72509;PMS5003;60532;56.114;40.350;2024-01-11T03:41:23;8.40;3.60;1.00
72509;PMS5003;60532;56.114;40.350;2024-01-11T03:43:24;5.50;4.50;4.00
72509;PMS5003;60532;56.114;40.350;2024-01-11T03:45:25;7.50;7.50;4.50
72509;PMS5003;60532;56.114;40.350;2024-01-11T03:47:25;8.00;5.50;3.00
72509;PMS5003;60532;56.114;40.350;2024-01-11T03:49:26;12.50;3.00;3.00
72509;PMS5003;60532;56.114;40.350;2024-01-11T03:51:26;6.25;6.25;4.00
72509;PMS5003;60532;56.114;40.350;2024-01-11T03:53:27;9.00;5.50;4.00
72509;PMS5003;60532;56.114;40.350;2024-01-11T03:55:27;7.75;6.00;3.00
72509;PMS5003;60532;56.114;40.350;2024-01-11T03:57:28;14.00;6.00;6.00
72509;PMS5003;60532;56.114;40.350;2024-01-11T03:59:28;9.00;7.00;5.50
72509;PMS5003;60532;56.114;40.350;2024-01-11T04:01:28;6.75;5.00;2.00
72509;PMS5003;60532;56.114;40.350;2024-01-11T04:03:29;12.25;4.00;1.00
72509;PMS5003;60532;56.114;40.350;2024-01-11T04:05:29;11.50;8.00;5.50
72509;PMS5003;60532;56.114;40.350;2024-01-11T04:07:30;7.00;6.00;4.00
72509;PMS5003;60532;56.114;40.350;2024-01-11T04:09:30;6.75;4.50;3.75
72509;PMS5003;60532;56.114;40.350;2024-01-11T04:11:31;2.00;2.00;1.00
72509;PMS5003;60532;56.114;40.350;2024-01-11T04:13:31;6.00;5.00;3.00
72509;PMS5003;60532;56.114;40.350;2024-01-11T04:15:32;14.00;4.00;3.00
72509;PMS5003;60532;56.114;40.350;2024-01-11T04:17:32;9.00;6.75;4.00
72509;PMS5003;60532;56.114;40.350;2024-01-11T04:19:32;9.75;5.50;4.00
72509;PMS5003;60532;56.114;40.350;2024-01-11T04:21:33;10.00;4.00;3.00
72509;PMS5003;60532;56.114;40.350;2024-01-11T04:23:33;3.00;1.00;0.00
72509;PMS5003;60532;56.114;40.350;2024-01-11T04:25:34;9.00;5.50;1.50
72509;PMS5003;60532;56.114;40.350;2024-01-11T04:27:35;8.60;7.00;4.00
72509;PMS5003;60532;56.114;40.350;2024-01-11T04:29:35;4.00;4.00;4.00
72509;PMS5003;60532;56.114;40.350;2024-01-11T04:31:36;9.75;6.50;3.25
72509;PMS5003;60532;56.114;40.350;2024-01-11T04:33:39;9.25;6.00;4.00
72509;PMS5003;60532;56.114;40.350;2024-01-11T04:35:40;12.20;7.40;4.40
72509;PMS5003;60532;56.114;40.350;2024-01-11T04:37:40;4.00;4.00;3.75
72509;PMS5003;60532;56.114;40.350;2024-01-11T04:39:41;10.25;7.00;4.00
72509;PMS5003;60532;56.114;40.350;2024-01-11T04:41:41;12.00;7.00;6.00
72509;PMS5003;60532;56.114;40.350;2024-01-11T04:43:42;10.00;6.50;4.00
72509;PMS5003;60532;56.114;40.350;2024-01-11T04:45:43;7.00;6.00;4.00
72509;PMS5003;60532;56.114;40.350;2024-01-11T04:47:43;9.50;4.50;3.75
72509;PMS5003;60532;56.114;40.350;2024-01-11T04:49:44;9.25;6.00;4.00
72509;PMS5003;60532;56.114;40.350;2024-01-11T04:51:44;6.00;4.00;3.00
72509;PMS5003;60532;56.114;40.350;2024-01-11T04:53:45;7.00;4.00;4.00
72509;PMS5003;60532;56.114;40.350;2024-01-11T04:55:46;7.00;6.00;4.00
72509;PMS5003;60532;56.114;40.350;2024-01-11T04:57:47;6.50;4.00;3.00
72509;PMS5003;60532;56.114;40.350;2024-01-11T04:59:47;6.25;4.00;3.00
72509;PMS5003;60532;56.114;40.350;2024-01-11T05:01:48;8.50;6.25;3.00
72509;PMS5003;60532;56.114;40.350;2024-01-11T05:03:48;8.75;6.75;2.50
72509;PMS5003;60532;56.114;40.350;2024-01-11T05:05:49;5.50;5.50;3.00
72509;PMS5003;60532;56.114;40.350;2024-01-11T05:07:49;3.50;3.50;3.00
72509;PMS5003;60532;56.114;40.350;2024-01-11T05:09:49;6.00;6.00;3.25
72509;PMS5003;60532;56.114;40.350;2024-01-11T05:11:50;9.00;5.75;3.00
72509;PMS5003;60532;56.114;40.350;2024-01-11T05:13:51;9.25;6.00;4.00
72509;PMS5003;60532;56.114;40.350;2024-01-11T05:15:51;6.00;6.00;4.00
72509;PMS5003;60532;56.114;40.350;2024-01-11T05:17:52;5.00;3.75;1.50
72509;PMS5003;60532;56.114;40.350;2024-01-11T05:19:52;17.00;6.00;4.00
72509;PMS5003;60532;56.114;40.350;2024-01-11T05:21:53;9.75;8.50;5.50
72509;PMS5003;60532;56.114;40.350;2024-01-11T05:23:53;8.75;7.00;4.00
72509;PMS5003;60532;56.114;40.350;2024-01-11T05:25:53;6.50;6.00;4.00
72509;PMS5003;60532;56.114;40.350;2024-01-11T05:27:54;8.75;6.00;4.00
72509;PMS5003;60532;56.114;40.350;2024-01-11T05:29:54;7.00;4.00;1.00
72509;PMS5003;60532;56.114;40.350;2024-01-11T05:31:55;10.00;7.00;6.00
72509;PMS5003;60532;56.114;40.350;2024-01-11T05:33:55;9.50;7.50;6.00
72509;PMS5003;60532;56.114;40.350;2024-01-11T05:35:56;6.00;6.00;4.00
72509;PMS5003;60532;56.114;40.350;2024-01-11T05:37:56;9.50;6.50;4.00
72509;PMS5003;60532;56.114;40.350;2024-01-11T05:39:57;16.00;7.50;4.50
72509;PMS5003;60532;56.114;40.350;2024-01-11T05:41:57;10.75;8.50;6.00
72509;PMS5003;60532;56.114;40.350;2024-01-11T05:43:58;14.50;6.50;4.00
72509;PMS5003;60532;56.114;40.350;2024-01-11T05:45:58;5.00;5.00;3.75
72509;PMS5003;60532;56.114;40.350;2024-01-11T05:47:58;8.00;6.25;6.00
72509;PMS5003;60532;56.114;40.350;2024-01-11T05:49:59;14.75;8.00;5.50
72509;PMS5003;60532;56.114;40.350;2024-01-11T05:52:00;13.75;7.00;4.50
72509;PMS5003;60532;56.114;40.350;2024-01-11T05:54:00;7.75;6.50;4.00
72509;PMS5003;60532;56.114;40.350;2024-01-11T05:56:01;11.25;4.25;3.25
72509;PMS5003;60532;56.114;40.350;2024-01-11T05:58:03;11.20;4.00;3.00
72509;PMS5003;60532;56.114;40.350;2024-01-11T06:00:04;13.50;7.50;4.00
72509;PMS5003;60532;56.114;40.350;2024-01-11T06:02:05;7.40;6.00;4.00
72509;PMS5003;60532;56.114;40.350;2024-01-11T06:04:05;7.50;6.25;4.00
72509;PMS5003;60532;56.114;40.350;2024-01-11T06:06:06;15.25;6.00;3.00
72509;PMS5003;60532;56.114;40.350;2024-01-11T06:08:07;7.50;7.50;4.50
72509;PMS5003;60532;56.114;40.350;2024-01-11T06:10:07;11.75;9.25;6.00
72509;PMS5003;60532;56.114;40.350;2024-01-11T06:12:09;14.20;6.00;4.00
72509;PMS5003;60532;56.114;40.350;2024-01-11T06:14:09;16.50;7.00;3.00
72509;PMS5003;60532;56.114;40.350;2024-01-11T06:16:10;11.00;6.75;5.50
72509;PMS5003;60532;56.114;40.350;2024-01-11T06:18:10;7.50;6.50;4.50
72509;PMS5003;60532;56.114;40.350;2024-01-11T06:20:11;15.00;7.00;6.00
72509;PMS5003;60532;56.114;40.350;2024-01-11T06:22:11;12.75;12.75;7.00
72509;PMS5003;60532;56.114;40.350;2024-01-11T06:24:12;9.50;6.75;5.50
72509;PMS5003;60532;56.114;40.350;2024-01-11T06:26:12;14.00;10.00;7.00
72509;PMS5003;60532;56.114;40.350;2024-01-11T06:28:13;14.50;6.75;4.50
72509;PMS5003;60532;56.114;40.350;2024-01-11T06:30:13;10.00;10.00;6.50
72509;PMS5003;60532;56.114;40.350;2024-01-11T06:32:14;12.00;9.00;6.25
72509;PMS5003;60532;56.114;40.350;2024-01-11T06:34:14;5.25;3.00;0.00
72509;PMS5003;60532;56.114;40.350;2024-01-11T06:36:15;19.00;12.00;9.00
72509;PMS5003;60532;56.114;40.350;2024-01-11T06:38:15;15.25;12.00;9.00
72509;PMS5003;60532;56.114;40.350;2024-01-11T06:40:16;15.50;11.50;7.00
72509;PMS5003;60532;56.114;40.350;2024-01-11T06:42:16;13.75;9.00;7.00
72509;PMS5003;60532;56.114;40.350;2024-01-11T06:44:17;14.75;12.50;7.00
72509;PMS5003;60532;56.114;40.350;2024-01-11T06:46:21;14.60;9.20;6.80
72509;PMS5003;60532;56.114;40.350;2024-01-11T06:48:21;13.80;10.80;7.00
72509;PMS5003;60532;56.114;40.350;2024-01-11T06:50:22;15.25;11.00;7.00
72509;PMS5003;60532;56.114;40.350;2024-01-11T06:52:22;15.00;8.75;4.50
72509;PMS5003;60532;56.114;40.350;2024-01-11T06:54:23;15.00;11.00;6.50
72509;PMS5003;60532;56.114;40.350;2024-01-11T06:56:23;17.50;9.25;7.00
72509;PMS5003;60532;56.114;40.350;2024-01-11T06:58:24;9.75;1.00;1.00
72509;PMS5003;60532;56.114;40.350;2024-01-11T07:00:24;16.50;13.50;7.00
72509;PMS5003;60532;56.114;40.350;2024-01-11T07:02:25;19.00;9.75;6.25
72509;PMS5003;60532;56.114;40.350;2024-01-11T07:04:25;15.00;11.50;9.00
72509;PMS5003;60532;56.114;40.350;2024-01-11T07:06:26;15.00;9.25;6.00
72509;PMS5003;60532;56.114;40.350;2024-01-11T07:08:26;16.75;10.00;7.00
72509;PMS5003;60532;56.114;40.350;2024-01-11T07:10:27;19.50;12.00;7.00
72509;PMS5003;60532;56.114;40.350;2024-01-11T07:12:27;18.25;9.50;7.00
72509;PMS5003;60532;56.114;40.350;2024-01-11T07:14:28;16.50;10.00;6.50
72509;PMS5003;60532;56.114;40.350;2024-01-11T07:16:30;16.20;10.80;6.60
72509;PMS5003;60532;56.114;40.350;2024-01-11T07:18:31;16.80;12.00;9.00
72509;PMS5003;60532;56.114;40.350;2024-01-11T07:20:31;11.25;11.25;6.50
72509;PMS5003;60532;56.114;40.350;2024-01-11T07:22:31;12.50;10.25;7.00
72509;PMS5003;60532;56.114;40.350;2024-01-11T07:24:32;24.25;13.50;7.00
72509;PMS5003;60532;56.114;40.350;2024-01-11T07:26:37;17.60;12.80;6.00
72509;PMS5003;60532;56.114;40.350;2024-01-11T07:28:38;19.00;13.00;7.00
72509;PMS5003;60532;56.114;40.350;2024-01-11T07:30:39;19.00;9.00;6.00
72509;PMS5003;60532;56.114;40.350;2024-01-11T07:32:40;16.00;12.00;8.00
72509;PMS5003;60532;56.114;40.350;2024-01-11T07:34:40;19.75;12.00;8.00
72509;PMS5003;60532;56.114;40.350;2024-01-11T07:36:40;18.25;11.75;9.00
72509;PMS5003;60532;56.114;40.350;2024-01-11T07:38:41;19.25;12.50;7.00
72509;PMS5003;60532;56.114;40.350;2024-01-11T07:40:41;17.25;13.00;9.00
72509;PMS5003;60532;56.114;40.350;2024-01-11T07:42:42;17.60;13.20;9.40
72509;PMS5003;60532;56.114;40.350;2024-01-11T07:44:43;21.75;8.50;5.50
72509;PMS5003;60532;56.114;40.350;2024-01-11T07:46:44;14.25;12.00;9.00
72509;PMS5003;60532;56.114;40.350;2024-01-11T07:48:44;16.75;12.25;8.50
72509;PMS5003;60532;56.114;40.350;2024-01-11T07:50:45;21.50;13.00;7.50
72509;PMS5003;60532;56.114;40.350;2024-01-11T07:52:45;21.50;12.75;8.50
72509;PMS5003;60532;56.114;40.350;2024-01-11T07:54:46;15.25;9.50;7.50
72509;PMS5003;60532;56.114;40.350;2024-01-11T07:56:46;23.00;12.25;9.00
72509;PMS5003;60532;56.114;40.350;2024-01-11T07:58:47;25.50;17.50;9.50
72509;PMS5003;60532;56.114;40.350;2024-01-11T08:00:47;18.00;12.50;7.50
72509;PMS5003;60532;56.114;40.350;2024-01-11T08:02:49;14.20;9.40;6.20
72509;PMS5003;60532;56.114;40.350;2024-01-11T08:04:49;14.00;10.50;6.00
72509;PMS5003;60532;56.114;40.350;2024-01-11T08:06:50;13.00;10.00;7.50
72509;PMS5003;60532;56.114;40.350;2024-01-11T08:08:52;12.20;10.00;7.00
72509;PMS5003;60532;56.114;40.350;2024-01-11T08:10:53;11.25;9.50;6.25
72509;PMS5003;60532;56.114;40.350;2024-01-11T08:12:53;15.00;10.75;6.75
72509;PMS5003;60532;56.114;40.350;2024-01-11T08:14:55;12.80;8.40;4.80
72509;PMS5003;60532;56.114;40.350;2024-01-11T08:16:56;16.00;10.00;8.00
72509;PMS5003;60532;56.114;40.350;2024-01-11T08:18:56;18.75;12.50;8.00
72509;PMS5003;60532;56.114;40.350;2024-01-11T08:20:56;25.25;12.50;9.00
72509;PMS5003;60532;56.114;40.350;2024-01-11T08:22:57;12.50;12.50;9.00
72509;PMS5003;60532;56.114;40.350;2024-01-11T08:24:58;13.80;10.00;6.00
72509;PMS5003;60532;56.114;40.350;2024-01-11T08:26:58;15.50;12.00;7.00
72509;PMS5003;60532;56.114;40.350;2024-01-11T08:28:59;28.25;15.50;9.00
72509;PMS5003;60532;56.114;40.350;2024-01-11T08:30:59;17.75;12.50;9.50
72509;PMS5003;60532;56.114;40.350;2024-01-11T08:33:00;23.75;17.50;12.00
72509;PMS5003;60532;56.114;40.350;2024-01-11T08:35:00;32.75;19.00;10.50
72509;PMS5003;60532;56.114;40.350;2024-01-11T08:37:00;21.50;12.50;7.00
72509;PMS5003;60532;56.114;40.350;2024-01-11T08:39:04;28.50;12.00;7.00
72509;PMS5003;60532;56.114;40.350;2024-01-11T08:41:09;17.40;14.60;9.40
72509;PMS5003;60532;56.114;40.350;2024-01-11T08:43:09;17.00;10.40;6.40
72509;PMS5003;60532;56.114;40.350;2024-01-11T08:45:10;20.50;14.00;9.00
72509;PMS5003;60532;56.114;40.350;2024-01-11T08:47:10;23.50;16.00;13.00
72509;PMS5003;60532;56.114;40.350;2024-01-11T08:49:11;16.00;12.25;9.50
72509;PMS5003;60532;56.114;40.350;2024-01-11T08:51:11;16.50;15.00;10.00
72509;PMS5003;60532;56.114;40.350;2024-01-11T08:53:12;18.40;13.00;9.80
72509;PMS5003;60532;56.114;40.350;2024-01-11T08:55:13;18.00;15.75;10.00
72509;PMS5003;60532;56.114;40.350;2024-01-11T08:57:13;20.25;12.25;7.50
72509;PMS5003;60532;56.114;40.350;2024-01-11T08:59:14;18.00;13.00;9.00
72509;PMS5003;60532;56.114;40.350;2024-01-11T09:01:14;14.00;9.25;6.00
72509;PMS5003;60532;56.114;40.350;2024-01-11T09:03:15;6.25;6.00;5.50
72509;PMS5003;60532;56.114;40.350;2024-01-11T09:05:17;15.80;10.40;6.80
72509;PMS5003;60532;56.114;40.350;2024-01-11T09:07:17;10.00;7.00;6.00
72509;PMS5003;60532;56.114;40.350;2024-01-11T09:09:17;13.00;4.50;3.00
72509;PMS5003;60532;56.114;40.350;2024-01-11T09:11:18;21.50;11.75;7.00
72509;PMS5003;60532;56.114;40.350;2024-01-11T09:13:19;11.00;9.75;6.00
72509;PMS5003;60532;56.114;40.350;2024-01-11T09:15:19;10.25;7.00;4.00
72509;PMS5003;60532;56.114;40.350;2024-01-11T09:17:20;14.00;9.00;5.50
72509;PMS5003;60532;56.114;40.350;2024-01-11T09:19:21;14.20;7.80;4.00
72509;PMS5003;60532;56.114;40.350;2024-01-11T09:21:22;16.00;8.50;6.00
72509;PMS5003;60532;56.114;40.350;2024-01-11T09:23:22;12.50;10.50;7.00
72509;PMS5003;60532;56.114;40.350;2024-01-11T09:25:22;13.75;8.25;6.00
72509;PMS5003;60532;56.114;40.350;2024-01-11T09:27:24;7.00;7.00;6.00
72509;PMS5003;60532;56.114;40.350;2024-01-11T09:29:24;12.25;7.50;6.00
72509;PMS5003;60532;56.114;40.350;2024-01-11T09:31:24;13.25;10.00;6.00
72509;PMS5003;60532;56.114;40.350;2024-01-11T09:33:25;10.00;8.50;6.75
72509;PMS5003;60532;56.114;40.350;2024-01-11T09:35:26;13.00;7.50;6.00
72509;PMS5003;60532;56.114;40.350;2024-01-11T09:37:26;13.25;9.50;6.00
72509;PMS5003;60532;56.114;40.350;2024-01-11T09:39:27;9.00;7.00;4.00
72509;PMS5003;60532;56.114;40.350;2024-01-11T09:41:27;15.50;10.50;6.50
72509;PMS5003;60532;56.114;40.350;2024-01-11T09:43:29;15.20;7.80;6.00
72509;PMS5003;60532;56.114;40.350;2024-01-11T09:45:30;9.75;9.75;6.00
72509;PMS5003;60532;56.114;40.350;2024-01-11T09:47:30;16.00;10.50;6.00
72509;PMS5003;60532;56.114;40.350;2024-01-11T09:49:31;9.60;9.60;6.60
72509;PMS5003;60532;56.114;40.350;2024-01-11T09:51:33;9.60;9.00;6.00
72509;PMS5003;60532;56.114;40.350;2024-01-11T09:53:34;16.00;7.00;6.00
72509;PMS5003;60532;56.114;40.350;2024-01-11T09:55:36;11.20;9.40;6.00
72509;PMS5003;60532;56.114;40.350;2024-01-11T09:57:37;6.75;6.00;4.50
72509;PMS5003;60532;56.114;40.350;2024-01-11T09:59:39;4.00;3.00;0.40
72509;PMS5003;60532;56.114;40.350;2024-01-11T10:01:40;11.00;6.40;4.00
72509;PMS5003;60532;56.114;40.350;2024-01-11T10:03:40;9.00;6.00;4.00
72509;PMS5003;60532;56.114;40.350;2024-01-11T10:05:41;11.20;9.00;5.60
72509;PMS5003;60532;56.114;40.350;2024-01-11T10:07:43;7.60;6.00;4.00
72509;PMS5003;60532;56.114;40.350;2024-01-11T10:09:43;11.25;4.00;3.25
72509;PMS5003;60532;56.114;40.350;2024-01-11T10:11:44;12.80;8.40;4.00
72509;PMS5003;60532;56.114;40.350;2024-01-11T10:13:44;10.50;6.00;4.00
72509;PMS5003;60532;56.114;40.350;2024-01-11T10:15:46;8.20;3.00;1.00
72509;PMS5003;60532;56.114;40.350;2024-01-11T10:17:46;4.50;4.00;3.00
72509;PMS5003;60532;56.114;40.350;2024-01-11T10:19:47;7.00;3.60;3.00
72509;PMS5003;60532;56.114;40.350;2024-01-11T10:21:48;11.25;6.25;3.50
72509;PMS5003;60532;56.114;40.350;2024-01-11T10:23:49;7.00;3.00;2.00
72509;PMS5003;60532;56.114;40.350;2024-01-11T10:25:50;7.80;4.00;3.00
72509;PMS5003;60532;56.114;40.350;2024-01-11T10:27:50;6.00;4.00;3.00
72509;PMS5003;60532;56.114;40.350;2024-01-11T10:29:51;11.25;6.00;4.00
72509;PMS5003;60532;56.114;40.350;2024-01-11T10:31:51;6.75;3.50;3.00
72509;PMS5003;60532;56.114;40.350;2024-01-11T10:33:52;5.50;5.50;3.00
72509;PMS5003;60532;56.114;40.350;2024-01-11T10:35:53;6.40;4.40;2.20
72509;PMS5003;60532;56.114;40.350;2024-01-11T10:37:54;7.20;5.80;4.00
72509;PMS5003;60532;56.114;40.350;2024-01-11T10:39:55;5.00;5.00;3.00
72509;PMS5003;60532;56.114;40.350;2024-01-11T10:42:02;6.60;4.00;3.00
72509;PMS5003;60532;56.114;40.350;2024-01-11T10:44:05;7.20;3.20;3.00
72509;PMS5003;60532;56.114;40.350;2024-01-11T10:46:07;5.60;4.80;3.20
72509;PMS5003;60532;56.114;40.350;2024-01-11T10:48:14;6.00;5.60;3.60
72509;PMS5003;60532;56.114;40.350;2024-01-11T10:50:15;4.00;3.80;3.00
72509;PMS5003;60532;56.114;40.350;2024-01-11T10:52:16;7.00;4.00;3.00
72509;PMS5003;60532;56.114;40.350;2024-01-11T10:54:19;9.40;4.00;3.00
72509;PMS5003;60532;56.114;40.350;2024-01-11T10:56:20;7.80;4.00;3.00
72509;PMS5003;60532;56.114;40.350;2024-01-11T10:58:22;3.80;0.40;0.00
72509;PMS5003;60532;56.114;40.350;2024-01-11T11:00:23;11.20;5.20;3.40
72509;PMS5003;60532;56.114;40.350;2024-01-11T11:02:23;5.00;5.00;3.75
72509;PMS5003;60532;56.114;40.350;2024-01-11T11:04:24;12.00;6.00;3.00
72509;PMS5003;60532;56.114;40.350;2024-01-11T11:06:26;10.25;6.50;4.00
72509;PMS5003;60532;56.114;40.350;2024-01-11T11:08:27;5.00;2.80;1.80
72509;PMS5003;60532;56.114;40.350;2024-01-11T11:10:28;6.50;3.25;3.00
72509;PMS5003;60532;56.114;40.350;2024-01-11T11:12:31;3.60;3.40;2.60
72509;PMS5003;60532;56.114;40.350;2024-01-11T11:14:32;5.40;1.40;1.00
72509;PMS5003;60532;56.114;40.350;2024-01-11T11:16:35;14.60;4.00;3.00
72509;PMS5003;60532;56.114;40.350;2024-01-11T11:18:35;4.75;3.00;3.00
72509;PMS5003;60532;56.114;40.350;2024-01-11T11:20:38;6.20;4.00;1.00
72509;PMS5003;60532;56.114;40.350;2024-01-11T11:22:42;3.80;1.40;0.80
72509;PMS5003;60532;56.114;40.350;2024-01-11T11:24:43;4.60;3.00;2.20
72509;PMS5003;60532;56.114;40.350;2024-01-11T11:26:43;5.50;1.00;1.00
72509;PMS5003;60532;56.114;40.350;2024-01-11T11:28:44;3.00;3.00;1.00
72509;PMS5003;60532;56.114;40.350;2024-01-11T11:30:45;4.25;3.00;1.00